createdAt,value
2023-01-07T00:00:45.158Z,18.67
2023-01-07T00:03:12.583Z,20.05
2023-01-07T00:05:47.999Z,19.55
2023-01-07T00:08:16.885Z,20.40
2023-01-07T00:10:43.875Z,22.42
2023-01-07T00:13:17.550Z,19.77
2023-01-07T00:15:44.429Z,21.92
2023-01-07T00:18:19.498Z,24.75
2023-01-07T00:20:47.160Z,23.00
2023-01-07T00:23:21.138Z,19.90
2023-01-07T00:25:55.480Z,18.88
2023-01-07T00:28:23.577Z,19.25
2023-01-07T00:30:58.674Z,20.75
2023-01-07T00:33:25.652Z,20.38
2023-01-07T00:36:10.129Z,20.27
2023-01-07T00:38:38.419Z,20.65
2023-01-07T00:41:12.630Z,20.92
2023-01-07T00:43:39.732Z,20.10
2023-01-07T00:46:16.000Z,19.77
2023-01-07T00:48:43.972Z,17.65
2023-01-07T00:51:21.609Z,19.10
2023-01-07T00:53:48.693Z,18.80
2023-01-07T00:56:17.534Z,22.52
2023-01-07T00:58:51.537Z,23.02
2023-01-07T01:01:18.805Z,22.35
2023-01-07T01:03:52.765Z,18.77
2023-01-07T01:06:21.143Z,19.35
2023-01-07T01:08:55.044Z,17.92
2023-01-07T01:11:21.945Z,18.45
2023-01-07T01:13:56.194Z,18.73
2023-01-07T01:16:23.209Z,19.30
2023-01-07T01:18:57.541Z,19.67
2023-01-07T01:21:25.829Z,19.98
2023-01-07T01:23:59.912Z,20.27
2023-01-07T01:26:27.365Z,20.77
2023-01-07T01:28:54.310Z,20.50
2023-01-07T01:31:29.239Z,21.52
2023-01-07T01:33:56.724Z,19.58
2023-01-07T01:36:30.943Z,20.25
2023-01-07T01:38:59.438Z,18.75
2023-01-07T01:41:34.141Z,20.75
2023-01-07T01:44:02.308Z,19.58
2023-01-07T01:46:48.713Z,19.75
2023-01-07T01:49:28.442Z,20.58
2023-01-07T01:52:25.187Z,20.05
2023-01-07T01:54:56.760Z,19.55
2023-01-07T01:57:31.161Z,19.38
2023-01-07T01:59:59.378Z,18.88
2023-01-07T02:02:41.129Z,19.77
2023-01-07T02:05:09.694Z,19.50
2023-01-07T02:07:43.396Z,19.08
2023-01-07T02:10:21.443Z,18.17
2023-01-07T02:13:23.219Z,18.13
2023-01-07T02:16:19.139Z,19.60
2023-01-07T02:19:08.181Z,18.58
2023-01-07T02:22:11.265Z,18.73
2023-01-07T02:25:20.199Z,18.63
2023-01-07T02:28:34.241Z,17.80
2023-01-07T02:31:45.330Z,18.13
2023-01-07T02:34:46.215Z,18.00
2023-01-07T02:37:27.881Z,18.42
2023-01-07T02:40:26.187Z,19.13
2023-01-07T02:43:18.692Z,18.30
2023-01-07T02:46:19.209Z,18.35
2023-01-07T02:48:46.296Z,18.33
2023-01-07T02:51:19.238Z,18.10
2023-01-07T02:53:46.933Z,17.98
2023-01-07T02:56:38.229Z,16.92
2023-01-07T02:59:17.297Z,18.48
2023-01-07T03:02:12.267Z,17.00
2023-01-07T03:05:03.200Z,18.58
2023-01-07T03:08:11.279Z,18.33
2023-01-07T03:10:41.237Z,18.10
2023-01-07T03:13:24.250Z,17.90
2023-01-07T03:16:02.533Z,18.00
2023-01-07T03:18:37.249Z,18.15
2023-01-07T03:21:07.193Z,20.13
2023-01-07T03:23:35.783Z,18.58
2023-01-07T03:26:11.216Z,19.02
2023-01-07T03:28:38.143Z,17.23
2023-01-07T03:31:11.263Z,17.60
2023-01-07T03:34:06.313Z,17.38
2023-01-07T03:36:51.291Z,18.67
2023-01-07T03:39:18.182Z,16.77
2023-01-07T03:41:45.096Z,16.10
2023-01-07T03:44:18.238Z,16.50
2023-01-07T03:46:45.125Z,16.15
2023-01-07T03:49:18.244Z,14.80
2023-01-07T03:51:45.199Z,16.60
2023-01-07T03:54:18.231Z,14.77
2023-01-07T03:56:45.105Z,15.63
2023-01-07T03:59:11.979Z,14.68
2023-01-07T04:01:45.348Z,14.40
2023-01-07T04:04:19.323Z,15.00
2023-01-07T04:06:46.583Z,14.48
2023-01-07T04:09:13.828Z,14.98
2023-01-07T04:11:48.225Z,15.27
2023-01-07T04:14:15.159Z,14.93
2023-01-07T04:16:48.338Z,13.65
2023-01-07T04:19:15.233Z,14.88
2023-01-07T04:21:42.174Z,15.13
2023-01-07T04:24:15.286Z,14.57
2023-01-07T04:26:48.287Z,13.90
2023-01-07T04:29:22.283Z,14.48
2023-01-07T04:31:49.771Z,15.00
2023-01-07T04:34:23.316Z,14.02
2023-01-07T04:36:50.164Z,15.70
2023-01-07T04:39:23.297Z,14.82
2023-01-07T04:41:50.237Z,16.45
2023-01-07T04:44:23.250Z,15.23
2023-01-07T04:46:50.225Z,15.02
2023-01-07T04:49:17.436Z,16.20
2023-01-07T04:51:51.279Z,15.55
2023-01-07T04:54:18.196Z,15.68
2023-01-07T04:56:51.360Z,16.25
2023-01-07T04:59:18.264Z,15.90
2023-01-07T05:01:51.434Z,16.17
2023-01-07T05:04:18.538Z,16.42
2023-01-07T05:06:52.270Z,16.35
2023-01-07T05:09:25.309Z,16.45
2023-01-07T05:11:52.205Z,15.88
2023-01-07T05:14:25.309Z,16.15
2023-01-07T05:16:52.192Z,16.08
2023-01-07T05:19:25.315Z,16.35
2023-01-07T05:21:52.242Z,16.13
2023-01-07T05:24:25.321Z,16.48
2023-01-07T05:26:52.191Z,16.65
2023-01-07T05:29:25.285Z,17.75
2023-01-07T05:31:52.171Z,15.75
2023-01-07T05:34:25.270Z,15.43
2023-01-07T05:36:58.333Z,15.10
2023-01-07T05:39:25.589Z,14.77
2023-01-07T05:41:52.774Z,16.48
2023-01-07T05:44:26.470Z,16.02
2023-01-07T05:46:53.759Z,16.25
2023-01-07T05:49:27.353Z,16.58
2023-01-07T05:52:03.888Z,16.38
2023-01-07T05:54:37.287Z,15.50
2023-01-07T05:57:10.333Z,15.45
2023-01-07T05:59:37.263Z,15.90
2023-01-07T06:02:11.317Z,17.40
2023-01-07T06:04:38.221Z,15.63
2023-01-07T06:07:05.198Z,16.02
2023-01-07T06:09:38.333Z,16.05
2023-01-07T06:12:15.102Z,16.35
2023-01-07T06:14:42.063Z,16.45
2023-01-07T06:17:09.075Z,17.08
2023-01-07T06:19:42.337Z,16.48
2023-01-07T06:22:09.303Z,15.70
2023-01-07T06:24:36.236Z,17.63
2023-01-07T06:27:09.359Z,15.48
2023-01-07T06:29:43.251Z,15.65
2023-01-07T06:32:17.354Z,14.18
2023-01-07T06:34:50.405Z,17.83
2023-01-07T06:37:17.416Z,16.95
2023-01-07T06:39:51.317Z,16.63
2023-01-07T06:42:18.289Z,15.68
2023-01-07T06:44:53.486Z,15.50
2023-01-07T06:47:20.527Z,15.57
2023-01-07T06:49:54.361Z,15.38
2023-01-07T06:52:21.368Z,15.45
2023-01-07T06:54:48.823Z,15.95
2023-01-07T06:57:22.406Z,14.20
2023-01-07T06:59:49.424Z,14.38
2023-01-07T07:02:31.505Z,15.43
2023-01-07T07:04:58.659Z,14.75
2023-01-07T07:07:32.347Z,14.48
2023-01-07T07:09:59.336Z,13.65
2023-01-07T07:12:32.342Z,13.43
2023-01-07T07:14:59.264Z,12.65
2023-01-07T07:17:32.421Z,12.80
2023-01-07T07:19:59.707Z,13.00
2023-01-07T07:22:26.946Z,13.98
2023-01-07T07:25:20.384Z,14.00
2023-01-07T07:27:54.390Z,12.77
2023-01-07T07:30:46.517Z,12.63
2023-01-07T07:33:20.073Z,12.35
2023-01-07T07:35:54.492Z,11.95
2023-01-07T07:38:26.176Z,12.15
2023-01-07T07:40:53.488Z,12.75
2023-01-07T07:43:27.429Z,12.55
2023-01-07T07:45:54.668Z,12.10
2023-01-07T07:48:21.590Z,12.35
2023-01-07T07:50:57.356Z,13.80
2023-01-07T07:53:24.255Z,12.65
2023-01-07T07:55:57.405Z,13.43
2023-01-07T07:58:24.648Z,13.30
2023-01-07T08:00:51.598Z,13.23
2023-01-07T08:03:25.510Z,13.35
2023-01-07T08:05:52.461Z,13.43
2023-01-07T08:08:25.408Z,12.90
2023-01-07T08:10:55.536Z,13.23
2023-01-07T08:13:22.755Z,14.68
2023-01-07T08:15:56.458Z,13.48
2023-01-07T08:18:23.500Z,13.88
2023-01-07T08:20:57.431Z,12.90
2023-01-07T08:23:24.351Z,14.15
2023-01-07T08:25:57.392Z,13.77
2023-01-07T08:28:33.424Z,14.32
2023-01-07T08:31:07.405Z,14.25
2023-01-07T08:33:41.441Z,14.32
2023-01-07T08:36:21.498Z,15.65
2023-01-07T08:38:58.457Z,14.88
2023-01-07T08:41:25.726Z,15.48
2023-01-07T08:44:00.506Z,15.07
2023-01-07T08:46:27.531Z,15.52
2023-01-07T08:49:01.367Z,15.90
2023-01-07T08:51:34.380Z,14.85
2023-01-07T08:54:08.069Z,15.68
2023-01-07T08:56:41.386Z,15.57
2023-01-07T08:59:08.450Z,15.73
2023-01-07T09:01:37.851Z,16.63
2023-01-07T09:04:11.399Z,15.75
2023-01-07T09:06:44.456Z,16.70
2023-01-07T09:09:11.458Z,16.52
2023-01-07T09:11:45.421Z,16.48
2023-01-07T09:14:19.440Z,15.98
2023-01-07T09:16:47.242Z,15.95
2023-01-07T09:19:20.413Z,16.38
2023-01-07T09:21:47.415Z,16.23
2023-01-07T09:24:20.435Z,17.30
2023-01-07T09:26:47.421Z,16.35
2023-01-07T09:29:20.403Z,16.52
2023-01-07T09:31:47.427Z,17.70
2023-01-07T09:34:20.484Z,17.20
2023-01-07T09:36:54.450Z,17.77
2023-01-07T09:39:21.399Z,17.63
2023-01-07T09:42:19.481Z,16.48
2023-01-07T09:44:58.343Z,16.52
2023-01-07T09:47:33.439Z,16.45
2023-01-07T09:50:05.954Z,16.52
2023-01-07T09:52:48.438Z,16.77
2023-01-07T09:55:32.900Z,17.75
2023-01-07T09:58:06.422Z,17.42
2023-01-07T10:00:33.971Z,17.17
2023-01-07T10:03:31.534Z,17.27
2023-01-07T10:06:13.409Z,18.20
2023-01-07T10:09:20.502Z,17.50
2023-01-07T10:12:06.088Z,18.15
2023-01-07T10:14:52.528Z,17.50
2023-01-07T10:17:57.946Z,17.20
2023-01-07T10:20:51.451Z,18.30
2023-01-07T10:23:25.604Z,18.75
2023-01-07T10:26:01.497Z,18.40
2023-01-07T10:28:49.034Z,16.75
2023-01-07T10:31:27.161Z,19.58
2023-01-07T10:34:07.276Z,20.30
2023-01-07T10:36:40.487Z,18.75
2023-01-07T10:39:38.895Z,19.45
2023-01-07T10:43:10.569Z,18.25
2023-01-07T10:46:18.337Z,17.02
2023-01-07T10:53:38.044Z,17.30
2023-01-07T10:56:41.423Z,18.00
2023-01-07T10:59:23.118Z,18.13
2023-01-07T11:02:03.668Z,16.85
2023-01-07T11:04:31.191Z,17.85
2023-01-07T11:07:13.529Z,18.42
2023-01-07T11:09:49.184Z,17.65
2023-01-07T11:13:28.910Z,19.10
2023-01-07T11:16:07.645Z,19.60
2023-01-07T11:19:15.300Z,19.75
2023-01-07T11:22:02.889Z,19.35
2023-01-07T11:24:35.997Z,19.88
2023-01-07T11:27:23.529Z,19.50
2023-01-07T11:30:06.133Z,19.70
2023-01-07T11:33:00.160Z,19.60
2023-01-07T11:35:37.454Z,19.23
2023-01-07T11:38:11.551Z,19.67
2023-01-07T11:40:45.467Z,22.10
2023-01-07T11:43:22.687Z,19.55
2023-01-07T11:46:19.242Z,20.20
2023-01-07T11:48:55.511Z,20.45
2023-01-07T11:51:29.671Z,19.95
2023-01-07T11:54:04.891Z,19.63
2023-01-07T11:56:33.374Z,22.40
2023-01-07T11:59:19.611Z,20.67
2023-01-07T12:01:55.277Z,20.75
2023-01-07T12:04:38.475Z,19.95
2023-01-07T12:07:20.509Z,20.02
2023-01-07T12:09:47.426Z,22.42
2023-01-07T12:12:34.754Z,20.92
2023-01-07T12:15:31.522Z,21.48
2023-01-07T12:18:15.527Z,22.30
2023-01-07T12:21:22.563Z,22.70
2023-01-07T12:24:43.476Z,22.58
2023-01-07T12:27:43.560Z,22.60
2023-01-07T12:30:55.534Z,22.27
2023-01-07T12:33:40.232Z,22.42
2023-01-07T12:36:58.526Z,22.13
2023-01-07T12:39:38.638Z,21.55
2023-01-07T12:42:14.491Z,22.02
2023-01-07T12:44:47.617Z,21.88
2023-01-07T12:47:59.510Z,22.05
2023-01-07T12:50:51.477Z,21.90
2023-01-07T12:53:26.836Z,21.45
2023-01-07T12:56:32.474Z,21.27
2023-01-07T12:59:03.146Z,22.63
2023-01-07T13:01:57.620Z,21.27
2023-01-07T13:04:55.488Z,22.25
2023-01-07T13:08:04.079Z,21.65
2023-01-07T13:10:49.749Z,20.52
2023-01-07T13:13:32.165Z,22.27
2023-01-07T13:16:07.017Z,21.05
2023-01-07T13:18:46.820Z,21.48
2023-01-07T13:21:16.364Z,21.88
2023-01-07T13:24:55.522Z,21.40
2023-01-07T13:27:25.084Z,21.30
2023-01-07T13:30:28.613Z,22.75
2023-01-07T13:33:05.465Z,21.40
2023-01-07T13:36:31.526Z,20.98
2023-01-07T13:39:16.583Z,21.35
2023-01-07T13:42:25.020Z,21.08
2023-01-07T13:45:06.685Z,20.33
2023-01-07T13:47:57.644Z,21.88
2023-01-07T13:50:44.576Z,21.90
2023-01-07T13:53:14.512Z,20.90
2023-01-07T13:55:49.571Z,20.92
2023-01-07T13:58:31.628Z,22.38
2023-01-07T14:01:17.678Z,21.42
2023-01-07T14:03:57.534Z,20.48
2023-01-07T14:06:37.553Z,20.05
2023-01-07T14:09:07.513Z,20.30
2023-01-07T14:11:40.553Z,20.55
2023-01-07T14:14:35.192Z,21.67
2023-01-07T14:17:29.602Z,20.85
2023-01-07T14:20:29.007Z,18.40
2023-01-07T14:23:34.579Z,18.20
2023-01-07T14:26:43.593Z,18.02
2023-01-07T14:29:43.550Z,17.80
2023-01-07T14:32:28.553Z,18.70
2023-01-07T14:35:02.414Z,16.67
2023-01-07T14:37:38.556Z,16.48
2023-01-07T14:40:33.628Z,16.75
2023-01-07T14:43:07.541Z,19.13
2023-01-07T14:45:37.497Z,17.35
2023-01-07T14:48:16.591Z,17.42
2023-01-07T14:51:12.583Z,17.40
2023-01-07T14:54:14.013Z,16.20
2023-01-07T14:57:31.605Z,16.45
2023-01-07T15:00:28.619Z,16.70
2023-01-07T15:03:19.232Z,18.23
2023-01-07T15:06:25.583Z,17.08
2023-01-07T15:09:14.443Z,17.00
2023-01-07T15:11:48.573Z,18.30
2023-01-07T15:14:49.147Z,19.48
2023-01-07T15:17:22.625Z,17.98
2023-01-07T15:19:49.508Z,18.63
2023-01-07T15:22:52.576Z,18.65
2023-01-07T15:25:39.701Z,20.17
2023-01-07T15:28:27.581Z,22.08
2023-01-07T15:31:16.026Z,22.23
2023-01-07T15:33:56.140Z,24.88
2023-01-07T15:36:24.551Z,22.88
2023-01-07T15:39:01.625Z,24.13
2023-01-07T15:41:39.922Z,23.75
2023-01-07T15:44:33.601Z,23.85
2023-01-07T15:47:00.789Z,24.92
2023-01-07T15:49:37.637Z,25.38
2023-01-07T15:52:23.111Z,25.65
2023-01-07T15:54:56.601Z,24.38
2023-01-07T15:57:30.092Z,25.08
2023-01-07T16:00:04.605Z,24.40
2023-01-07T16:02:34.838Z,24.38
2023-01-07T16:05:14.060Z,25.70
2023-01-07T16:07:59.166Z,25.38
2023-01-07T16:10:31.811Z,24.27
2023-01-07T16:13:21.218Z,25.90
2023-01-07T16:15:55.616Z,26.85
2023-01-07T16:18:30.262Z,27.40
2023-01-07T16:21:09.588Z,27.23
2023-01-07T16:23:43.995Z,28.50
2023-01-07T16:26:17.133Z,26.27
2023-01-07T16:29:25.688Z,25.35
2023-01-07T16:31:53.111Z,25.40
2023-01-07T16:34:34.491Z,26.23
2023-01-07T16:37:01.765Z,25.30
2023-01-07T16:39:45.605Z,28.27
2023-01-07T16:42:20.640Z,24.58
2023-01-07T16:44:53.971Z,24.75
2023-01-07T16:47:22.515Z,24.45
2023-01-07T16:50:21.625Z,27.38
2023-01-07T16:52:56.196Z,25.48
2023-01-07T16:55:51.668Z,24.42
2023-01-07T16:58:51.615Z,24.63
2023-01-07T17:01:36.849Z,28.50
2023-01-07T17:04:08.721Z,31.88
2023-01-07T17:06:47.677Z,31.73
2023-01-07T17:09:37.937Z,32.55
2023-01-07T17:12:12.672Z,31.00
2023-01-07T17:14:49.703Z,29.00
2023-01-07T17:17:37.677Z,27.35
2023-01-07T17:20:23.757Z,27.25
2023-01-07T17:22:50.786Z,25.98
2023-01-07T17:25:31.704Z,26.38
2023-01-07T17:28:06.843Z,25.95
2023-01-07T17:30:45.054Z,23.80
2023-01-07T17:33:16.295Z,23.67
2023-01-07T17:35:53.759Z,22.35
2023-01-07T17:38:20.833Z,23.15
2023-01-07T17:40:54.781Z,24.67
2023-01-07T17:43:27.415Z,23.50
2023-01-07T17:45:54.524Z,22.77
2023-01-07T17:48:27.692Z,21.27
2023-01-07T17:51:00.828Z,20.55
2023-01-07T17:53:32.740Z,18.98
2023-01-07T17:56:09.678Z,18.27
2023-01-07T17:58:37.240Z,19.10
2023-01-07T18:01:19.527Z,18.73
2023-01-07T18:03:47.880Z,18.33
2023-01-07T18:06:29.682Z,18.50
2023-01-07T18:08:56.651Z,17.67
2023-01-07T18:11:31.822Z,19.30
2023-01-07T18:13:58.996Z,16.88
2023-01-07T18:16:26.217Z,17.17
2023-01-07T18:18:59.729Z,17.52
2023-01-07T18:21:26.663Z,17.58
2023-01-07T18:24:27.995Z,19.55
2023-01-07T18:26:56.661Z,19.58
2023-01-07T18:29:34.645Z,19.13
2023-01-07T18:32:02.174Z,17.65
2023-01-07T18:34:38.818Z,18.45
2023-01-07T18:37:06.263Z,18.20
2023-01-07T18:39:34.683Z,17.85
2023-01-07T18:42:08.760Z,17.95
2023-01-07T18:44:36.220Z,19.85
2023-01-07T18:47:12.859Z,20.05
2023-01-07T18:50:00.914Z,22.05
2023-01-07T18:52:30.516Z,20.10
2023-01-07T18:55:06.313Z,19.33
2023-01-07T18:57:36.635Z,21.35
2023-01-07T19:00:13.802Z,22.30
2023-01-07T19:02:40.732Z,23.10
2023-01-07T19:05:07.982Z,21.23
2023-01-07T19:07:41.693Z,23.63
2023-01-07T19:10:09.258Z,21.70
2023-01-07T19:12:36.294Z,22.02
2023-01-07T19:15:16.771Z,22.27
2023-01-07T19:17:43.792Z,21.55
2023-01-07T19:20:18.782Z,21.67
2023-01-07T19:22:45.721Z,21.92
2023-01-07T19:25:18.783Z,22.35
2023-01-07T19:27:52.753Z,21.70
2023-01-07T19:30:19.698Z,21.05
2023-01-07T19:32:46.624Z,21.33
2023-01-07T19:35:19.772Z,20.17
2023-01-07T19:37:46.650Z,21.85
2023-01-07T19:40:19.744Z,21.48
2023-01-07T19:42:46.689Z,19.83
2023-01-07T19:45:19.826Z,21.38
2023-01-07T19:47:46.737Z,21.00
2023-01-07T19:50:13.729Z,21.17
2023-01-07T19:52:46.719Z,23.05
2023-01-07T19:55:13.705Z,22.70
2023-01-07T19:57:46.750Z,22.08
2023-01-07T20:00:14.072Z,24.60
2023-01-07T20:02:47.841Z,22.02
2023-01-07T20:05:15.286Z,21.00
2023-01-07T20:07:42.244Z,21.52
2023-01-07T20:10:15.788Z,22.02
2023-01-07T20:12:42.757Z,22.30
2023-01-07T20:15:10.170Z,22.02
2023-01-07T20:17:43.759Z,22.17
2023-01-07T20:20:10.679Z,22.65
2023-01-07T20:22:37.610Z,22.40
2023-01-07T20:25:11.765Z,25.33
2023-01-07T20:27:38.716Z,25.20
2023-01-07T20:30:13.803Z,21.63
2023-01-07T20:32:40.837Z,21.35
2023-01-07T20:35:08.546Z,24.42
2023-01-07T20:37:41.810Z,26.05
2023-01-07T20:40:09.537Z,23.23
2023-01-07T20:42:42.843Z,22.60
2023-01-07T20:45:10.419Z,23.20
2023-01-07T20:47:43.838Z,21.98
2023-01-07T20:50:10.834Z,22.42
2023-01-07T20:52:44.791Z,23.02
2023-01-07T20:55:11.806Z,23.55
2023-01-07T20:57:44.812Z,24.63
2023-01-07T21:00:18.830Z,23.13
2023-01-07T21:02:45.821Z,22.38
2023-01-07T21:05:12.716Z,23.70
2023-01-07T21:07:45.784Z,24.58
2023-01-07T21:10:19.820Z,23.50
2023-01-07T21:12:47.458Z,22.63
2023-01-07T21:15:21.888Z,22.27
2023-01-07T21:17:48.868Z,22.30
2023-01-07T21:20:30.792Z,21.98
2023-01-07T21:22:57.768Z,21.88
2023-01-07T21:25:24.783Z,22.15
2023-01-07T21:27:57.809Z,22.13
2023-01-07T21:30:24.748Z,21.25
2023-01-07T21:32:51.790Z,22.92
2023-01-07T21:35:24.839Z,23.40
2023-01-07T21:38:01.818Z,23.17
2023-01-07T21:40:28.718Z,20.45
2023-01-07T21:43:01.869Z,23.17
2023-01-07T21:45:35.894Z,23.77
2023-01-07T21:48:02.865Z,22.52
2023-01-07T21:50:35.824Z,23.63
2023-01-07T21:53:02.794Z,22.95
2023-01-07T21:55:35.877Z,21.60
2023-01-07T21:58:02.861Z,23.77
2023-01-07T22:00:35.836Z,24.27
2023-01-07T22:03:02.726Z,23.65
2023-01-07T22:05:29.730Z,24.52
2023-01-07T22:08:05.754Z,25.35
2023-01-07T22:10:32.661Z,23.42
2023-01-07T22:13:05.866Z,21.45
2023-01-07T22:15:32.842Z,21.38
2023-01-07T22:17:59.771Z,21.67
2023-01-07T22:20:32.933Z,21.95
2023-01-07T22:23:07.056Z,25.17
2023-01-07T22:25:40.869Z,22.40
2023-01-07T22:28:07.833Z,21.80
2023-01-07T22:30:34.800Z,22.30
2023-01-07T22:33:07.871Z,22.85
2023-01-07T22:35:34.999Z,22.75
2023-01-07T22:38:08.878Z,22.80
2023-01-07T22:40:36.128Z,21.38
2023-01-07T22:43:05.108Z,20.92
2023-01-07T22:45:51.990Z,25.40
2023-01-07T22:48:27.850Z,25.35
2023-01-07T22:51:03.854Z,24.88
2023-01-07T22:53:30.788Z,27.73
2023-01-07T22:55:58.324Z,27.73
2023-01-07T22:58:35.172Z,26.98
2023-01-07T23:01:09.586Z,25.50
2023-01-07T23:03:37.101Z,24.23
2023-01-07T23:06:10.962Z,24.73
2023-01-07T23:08:37.888Z,24.63
2023-01-07T23:11:05.109Z,21.10
2023-01-07T23:13:38.867Z,21.27
2023-01-07T23:16:14.562Z,21.27
2023-01-07T23:18:41.705Z,23.00
2023-01-07T23:21:15.834Z,20.63
2023-01-07T23:23:42.911Z,20.48
2023-01-07T23:26:20.878Z,19.23
2023-01-07T23:28:47.783Z,19.60
2023-01-07T23:31:15.235Z,18.48
2023-01-07T23:34:00.913Z,20.10
2023-01-07T23:36:38.913Z,19.63
2023-01-07T23:39:06.831Z,20.38
2023-01-07T23:41:44.124Z,18.92
2023-01-07T23:44:11.052Z,19.70
2023-01-07T23:46:46.457Z,19.70
2023-01-07T23:49:13.555Z,18.83
2023-01-07T23:51:46.864Z,18.63
2023-01-07T23:54:14.593Z,20.17
2023-01-07T23:56:48.477Z,21.30
2023-01-07T23:59:15.892Z,21.67
